Krugerville, Texas
Current Conditions -  °F | °C
As of 5:53 AM on Thursday 23 Oct 2014 (Local Time) from KDTO Reporting Station
Overcast Overcast  
Wind Chill: 64°   Ceiling: 7000
Heat Index: 64°   Visibility: 10mi
Dew Point: 55°   Wind: 6mph
Humidity: 72%   Direction: 130°SE
Pressure: 30.12"   Gusts: NA
Location:  33.2863°N, 96.9901°W
Report Text: KDTO 231053Z 13005KT 10SM OVC070 18/13 A3012 RMK AO2 SLP194 T01780128
Loading
Personal Weather Stations






























Interactive Weather Map
Tropical Storm Tracking
New forecast layout! Learn more

10-Day Weather Forecast

Advertisements
Track Severe Weather on mobile